createdAt,value
2023-03-03T00:00:52.876Z,1019.30
2023-03-03T00:01:52.872Z,1019.26
2023-03-03T00:02:52.848Z,1019.29
2023-03-03T00:03:52.833Z,1019.32
2023-03-03T00:04:52.818Z,1019.35
2023-03-03T00:05:52.798Z,1019.33
2023-03-03T00:06:52.921Z,1019.31
2023-03-03T00:07:52.779Z,1019.28
2023-03-03T00:08:52.758Z,1019.29
2023-03-03T00:09:52.767Z,1019.29
2023-03-03T00:10:52.763Z,1019.30
2023-03-03T00:11:52.713Z,1019.33
2023-03-03T00:12:52.713Z,1019.30
2023-03-03T00:13:52.775Z,1019.36
2023-03-03T00:14:52.673Z,1019.36
2023-03-03T00:15:52.706Z,1019.34
2023-03-03T00:16:52.642Z,1019.26
2023-03-03T00:17:52.628Z,1019.23
2023-03-03T00:18:52.612Z,1019.16
2023-03-03T00:19:52.595Z,1019.11
2023-03-03T00:20:52.579Z,1019.14
2023-03-03T00:21:52.733Z,1019.16
2023-03-03T00:22:52.551Z,1019.16
2023-03-03T00:23:52.569Z,1019.19
2023-03-03T00:24:52.522Z,1019.17
2023-03-03T00:25:52.512Z,1019.19
2023-03-03T00:26:52.490Z,1019.23
2023-03-03T00:27:52.481Z,1019.20
2023-03-03T00:28:52.466Z,1019.23
2023-03-03T00:29:52.449Z,1019.21
2023-03-03T00:30:52.477Z,1019.19
2023-03-03T00:31:52.465Z,1019.22
2023-03-03T00:32:52.429Z,1019.16
2023-03-03T00:33:52.391Z,1019.12
2023-03-03T00:34:52.715Z,1019.11
2023-03-03T00:35:52.415Z,1019.13
2023-03-03T00:36:52.351Z,1019.11
2023-03-03T00:37:52.333Z,1019.16
2023-03-03T00:38:52.318Z,1019.11
2023-03-03T00:39:52.305Z,1019.09
2023-03-03T00:40:52.291Z,1019.10
2023-03-03T00:41:52.273Z,1019.08
2023-03-03T00:42:52.260Z,1019.09
2023-03-03T00:43:52.245Z,1019.07
2023-03-03T00:44:52.235Z,1019.12
2023-03-03T00:45:52.242Z,1019.13
2023-03-03T00:46:52.206Z,1019.12
2023-03-03T00:47:52.187Z,1019.07
2023-03-03T00:48:52.169Z,1019.03
2023-03-03T00:49:52.157Z,1018.99
2023-03-03T00:50:52.143Z,1018.99
2023-03-03T00:51:52.126Z,1019.03
2023-03-03T00:52:52.114Z,1019.03
2023-03-03T00:53:52.098Z,1019.02
2023-03-03T00:54:52.084Z,1019.01
2023-03-03T00:55:52.068Z,1018.99
2023-03-03T00:56:52.057Z,1019.00
2023-03-03T00:57:52.038Z,1018.95
2023-03-03T00:58:52.022Z,1018.93
2023-03-03T00:59:52.042Z,1018.88
2023-03-03T01:00:51.992Z,1018.88
2023-03-03T01:01:52.020Z,1018.88
2023-03-03T01:02:52.021Z,1018.91
2023-03-03T01:03:51.956Z,1018.92
2023-03-03T01:04:51.946Z,1018.90
2023-03-03T01:05:51.921Z,1018.94
2023-03-03T01:06:51.916Z,1018.97
2023-03-03T01:07:51.890Z,1018.94
2023-03-03T01:08:51.883Z,1018.93
2023-03-03T01:09:51.861Z,1018.97
2023-03-03T01:10:51.861Z,1018.97
2023-03-03T01:11:51.832Z,1018.96
2023-03-03T01:12:51.817Z,1019.02
2023-03-03T01:13:51.804Z,1018.96
2023-03-03T01:14:51.792Z,1018.93
2023-03-03T01:15:51.837Z,1018.91
2023-03-03T01:16:51.760Z,1018.91
2023-03-03T01:17:52.165Z,1018.91
2023-03-03T01:18:51.741Z,1018.92
2023-03-03T01:19:51.716Z,1018.91
2023-03-03T01:20:51.701Z,1018.92
2023-03-03T01:21:51.687Z,1018.90
2023-03-03T01:22:51.672Z,1018.84
2023-03-03T01:23:51.668Z,1018.83
2023-03-03T01:24:51.648Z,1018.83
2023-03-03T01:25:51.639Z,1018.77
2023-03-03T01:26:51.613Z,1018.82
2023-03-03T01:27:51.602Z,1018.82
2023-03-03T01:28:51.588Z,1018.80
2023-03-03T01:29:51.569Z,1018.80
2023-03-03T01:30:51.561Z,1018.79
2023-03-03T01:31:51.538Z,1018.80
2023-03-03T01:32:51.529Z,1018.82
2023-03-03T01:33:51.509Z,1018.74
2023-03-03T01:34:51.505Z,1018.67
2023-03-03T01:35:51.487Z,1018.65
2023-03-03T01:36:51.467Z,1018.68
2023-03-03T01:37:51.455Z,1018.68
2023-03-03T01:38:51.440Z,1018.69
2023-03-03T01:39:51.429Z,1018.68
2023-03-03T01:40:51.407Z,1018.62
2023-03-03T01:41:51.390Z,1018.58
2023-03-03T01:42:51.383Z,1018.57
2023-03-03T01:43:51.362Z,1018.59
2023-03-03T01:44:51.353Z,1018.56
2023-03-03T01:45:51.343Z,1018.53
2023-03-03T01:46:51.365Z,1018.51
2023-03-03T01:47:51.304Z,1018.48
2023-03-03T01:48:51.287Z,1018.46
2023-03-03T01:49:51.274Z,1018.45
2023-03-03T01:50:51.274Z,1018.48
2023-03-03T01:51:51.251Z,1018.49
2023-03-03T01:52:51.228Z,1018.54
2023-03-03T01:53:51.229Z,1018.50
2023-03-03T01:54:51.201Z,1018.49
2023-03-03T01:55:51.188Z,1018.51
2023-03-03T01:56:51.179Z,1018.48
2023-03-03T01:57:51.159Z,1018.50
2023-03-03T01:58:51.146Z,1018.50
2023-03-03T01:59:51.141Z,1018.52
2023-03-03T02:00:51.114Z,1018.51
2023-03-03T02:01:51.144Z,1018.56
2023-03-03T02:02:51.113Z,1018.54
2023-03-03T02:03:51.069Z,1018.50
2023-03-03T02:04:51.053Z,1018.57
2023-03-03T02:05:51.090Z,1018.64
2023-03-03T02:06:51.029Z,1018.66
2023-03-03T02:07:51.009Z,1018.63
2023-03-03T02:08:50.997Z,1018.62
2023-03-03T02:09:51.006Z,1018.59
2023-03-03T02:10:50.969Z,1018.59
2023-03-03T02:11:50.958Z,1018.65
2023-03-03T02:12:50.956Z,1018.62
2023-03-03T02:13:50.934Z,1018.70
2023-03-03T02:14:50.920Z,1018.67
2023-03-03T02:15:50.993Z,1018.68
2023-03-03T02:16:50.885Z,1018.67
2023-03-03T02:17:50.917Z,1018.63
2023-03-03T02:18:50.859Z,1018.65
2023-03-03T02:19:50.880Z,1018.67
2023-03-03T02:20:50.872Z,1018.67
2023-03-03T02:21:50.836Z,1018.66
2023-03-03T02:22:50.836Z,1018.64
2023-03-03T02:23:50.868Z,1018.68
2023-03-03T02:24:50.804Z,1018.70
2023-03-03T02:25:50.759Z,1018.73
2023-03-03T02:26:50.751Z,1018.74
2023-03-03T02:27:50.734Z,1018.72
2023-03-03T02:28:50.711Z,1018.72
2023-03-03T02:29:50.701Z,1018.71
2023-03-03T02:30:50.685Z,1018.70
2023-03-03T02:31:50.761Z,1018.69
2023-03-03T02:32:50.655Z,1018.70
2023-03-03T02:33:50.646Z,1018.70
2023-03-03T02:34:50.641Z,1018.67
2023-03-03T02:35:50.661Z,1018.63
2023-03-03T02:36:50.602Z,1018.64
2023-03-03T02:37:50.588Z,1018.64
2023-03-03T02:38:50.569Z,1018.65
2023-03-03T02:39:50.560Z,1018.67
2023-03-03T02:40:50.542Z,1018.68
2023-03-03T02:41:50.533Z,1018.68
2023-03-03T02:42:50.514Z,1018.68
2023-03-03T02:43:50.498Z,1018.72
2023-03-03T02:44:50.484Z,1018.72
2023-03-03T02:45:50.524Z,1018.70
2023-03-03T02:46:50.458Z,1018.68
2023-03-03T02:47:50.453Z,1018.68
2023-03-03T02:48:50.423Z,1018.70
2023-03-03T02:49:50.409Z,1018.74
2023-03-03T02:50:50.402Z,1018.75
2023-03-03T02:51:50.378Z,1018.71
2023-03-03T02:52:50.411Z,1018.75
2023-03-03T02:53:50.348Z,1018.74
2023-03-03T02:54:50.344Z,1018.68
2023-03-03T02:55:50.319Z,1018.70
2023-03-03T02:56:50.302Z,1018.67
2023-03-03T02:57:50.289Z,1018.68
2023-03-03T02:58:50.276Z,1018.70
2023-03-03T02:59:50.261Z,1018.71
2023-03-03T03:00:50.285Z,1018.73
2023-03-03T03:01:50.292Z,1018.72
2023-03-03T03:02:50.213Z,1018.72
2023-03-03T03:03:50.278Z,1018.71
2023-03-03T03:04:50.192Z,1018.75
2023-03-03T03:05:50.173Z,1018.75
2023-03-03T03:06:50.155Z,1018.72
2023-03-03T03:07:50.143Z,1018.71
2023-03-03T03:08:50.122Z,1018.69
2023-03-03T03:09:50.110Z,1018.69
2023-03-03T03:10:50.097Z,1018.75
2023-03-03T03:11:50.084Z,1018.76
2023-03-03T03:12:50.063Z,1018.79
2023-03-03T03:13:50.057Z,1018.81
2023-03-03T03:14:50.033Z,1018.86
2023-03-03T03:15:50.022Z,1018.89
2023-03-03T03:16:50.070Z,1018.90
2023-03-03T03:17:49.990Z,1018.92
2023-03-03T03:18:49.972Z,1018.99
2023-03-03T03:19:49.957Z,1019.04
2023-03-03T03:20:49.945Z,1019.06
2023-03-03T03:21:49.936Z,1019.06
2023-03-03T03:22:49.927Z,1019.04
2023-03-03T03:23:49.901Z,1019.00
2023-03-03T03:24:49.882Z,1019.03
2023-03-03T03:25:49.884Z,1019.05
2023-03-03T03:26:49.856Z,1019.04
2023-03-03T03:27:49.840Z,1019.07
2023-03-03T03:28:49.902Z,1019.02
2023-03-03T03:29:49.815Z,1019.02
2023-03-03T03:30:49.829Z,1019.01
2023-03-03T03:31:49.780Z,1019.03
2023-03-03T03:32:49.763Z,1019.05
2023-03-03T03:33:49.751Z,1019.08
2023-03-03T03:34:49.737Z,1019.05
2023-03-03T03:35:49.765Z,1019.04
2023-03-03T03:36:49.705Z,1019.04
2023-03-03T03:37:49.689Z,1019.01
2023-03-03T03:38:49.683Z,1018.98
2023-03-03T03:39:49.660Z,1018.95
2023-03-03T03:40:49.649Z,1018.90
2023-03-03T03:41:49.627Z,1018.89
2023-03-03T03:42:49.613Z,1018.88
2023-03-03T03:43:49.600Z,1018.87
2023-03-03T03:44:49.587Z,1018.88
2023-03-03T03:45:49.590Z,1018.81
2023-03-03T03:46:49.562Z,1018.85
2023-03-03T03:47:49.538Z,1018.88
2023-03-03T03:48:49.526Z,1018.87
2023-03-03T03:49:49.504Z,1018.87
2023-03-03T03:50:49.493Z,1018.87
2023-03-03T03:51:49.483Z,1018.85
2023-03-03T03:52:49.462Z,1018.81
2023-03-03T03:53:49.454Z,1018.81
2023-03-03T03:54:49.437Z,1018.77
2023-03-03T03:55:49.422Z,1018.80
2023-03-03T03:56:49.409Z,1018.75
2023-03-03T03:57:49.393Z,1018.73
2023-03-03T03:58:49.382Z,1018.74
2023-03-03T03:59:49.364Z,1018.73
2023-03-03T04:00:49.369Z,1018.73
2023-03-03T04:01:49.341Z,1018.76
2023-03-03T04:02:49.403Z,1018.70
2023-03-03T04:03:49.304Z,1018.68
2023-03-03T04:04:49.286Z,1018.66
2023-03-03T04:05:49.277Z,1018.68
2023-03-03T04:06:49.261Z,1018.66
2023-03-03T04:07:49.250Z,1018.66
2023-03-03T04:08:49.235Z,1018.69
2023-03-03T04:09:49.228Z,1018.68
2023-03-03T04:10:49.220Z,1018.68
2023-03-03T04:11:49.188Z,1018.67
2023-03-03T04:12:49.170Z,1018.64
2023-03-03T04:13:49.192Z,1018.66
2023-03-03T04:14:49.142Z,1018.60
2023-03-03T04:15:49.178Z,1018.58
2023-03-03T04:16:49.125Z,1018.60
2023-03-03T04:17:49.106Z,1018.60
2023-03-03T04:18:49.084Z,1018.66
2023-03-03T04:19:49.077Z,1018.64
2023-03-03T04:20:49.053Z,1018.65
2023-03-03T04:21:49.048Z,1018.60
2023-03-03T04:22:49.030Z,1018.58
2023-03-03T04:23:49.019Z,1018.56
2023-03-03T04:24:48.994Z,1018.58
2023-03-03T04:25:48.983Z,1018.58
2023-03-03T04:26:48.963Z,1018.61
2023-03-03T04:27:48.948Z,1018.59
2023-03-03T04:28:48.933Z,1018.57
2023-03-03T04:29:48.920Z,1018.54
2023-03-03T04:30:48.906Z,1018.53
2023-03-03T04:31:48.889Z,1018.55
2023-03-03T04:32:48.880Z,1018.54
2023-03-03T04:33:48.860Z,1018.54
2023-03-03T04:34:53.098Z,1018.55
2023-03-03T04:35:48.864Z,1018.54
2023-03-03T04:36:48.826Z,1018.53
2023-03-03T04:37:48.801Z,1018.59
2023-03-03T04:38:48.784Z,1018.60
2023-03-03T04:39:48.770Z,1018.62
2023-03-03T04:40:48.756Z,1018.58
2023-03-03T04:41:48.748Z,1018.58
2023-03-03T04:42:48.732Z,1018.58
2023-03-03T04:43:48.713Z,1018.59
2023-03-03T04:44:48.708Z,1018.61
2023-03-03T04:45:48.728Z,1018.63
2023-03-03T04:46:48.672Z,1018.67
2023-03-03T04:47:48.660Z,1018.65
2023-03-03T04:48:48.656Z,1018.65
2023-03-03T04:49:48.626Z,1018.62
2023-03-03T04:50:48.615Z,1018.61
2023-03-03T04:51:48.594Z,1018.64
2023-03-03T04:52:48.584Z,1018.64
2023-03-03T04:53:48.565Z,1018.65
2023-03-03T04:54:48.564Z,1018.74
2023-03-03T04:55:48.536Z,1018.66
2023-03-03T04:56:48.516Z,1018.62
2023-03-03T04:57:48.505Z,1018.61
2023-03-03T04:58:48.492Z,1018.58
2023-03-03T04:59:48.483Z,1018.61
2023-03-03T05:00:48.465Z,1018.53
2023-03-03T05:01:48.506Z,1018.52
2023-03-03T05:02:48.430Z,1018.50
2023-03-03T05:03:48.415Z,1018.51
2023-03-03T05:04:48.483Z,1018.51
2023-03-03T05:05:48.383Z,1018.45
2023-03-03T05:06:48.367Z,1018.43
2023-03-03T05:07:48.344Z,1018.38
2023-03-03T05:08:48.340Z,1018.34
2023-03-03T05:09:48.320Z,1018.35
2023-03-03T05:10:48.309Z,1018.37
2023-03-03T05:11:48.289Z,1018.37
2023-03-03T05:12:48.264Z,1018.39
2023-03-03T05:13:48.259Z,1018.40
2023-03-03T05:14:48.237Z,1018.40
2023-03-03T05:15:48.243Z,1018.46
2023-03-03T05:16:48.207Z,1018.44
2023-03-03T05:17:48.191Z,1018.39
2023-03-03T05:18:48.178Z,1018.39
2023-03-03T05:19:48.161Z,1018.42
2023-03-03T05:20:48.151Z,1018.41
2023-03-03T05:21:48.132Z,1018.42
2023-03-03T05:22:48.115Z,1018.47
2023-03-03T05:23:48.100Z,1018.51
2023-03-03T05:24:48.083Z,1018.55
2023-03-03T05:25:48.075Z,1018.57
2023-03-03T05:26:48.060Z,1018.57
2023-03-03T05:27:48.049Z,1018.52
2023-03-03T05:28:48.025Z,1018.56
2023-03-03T05:29:48.009Z,1018.58
2023-03-03T05:30:47.998Z,1018.59
2023-03-03T05:31:48.089Z,1018.63
2023-03-03T05:32:47.962Z,1018.62
2023-03-03T05:33:47.949Z,1018.65
2023-03-03T05:34:47.934Z,1018.69
2023-03-03T05:35:47.962Z,1018.68
2023-03-03T05:36:47.909Z,1018.67
2023-03-03T05:37:47.883Z,1018.73
2023-03-03T05:38:47.871Z,1018.67
2023-03-03T05:39:47.856Z,1018.66
2023-03-03T05:40:47.846Z,1018.70
2023-03-03T05:41:47.827Z,1018.67
2023-03-03T05:42:47.843Z,1018.67
2023-03-03T05:43:47.813Z,1018.70
2023-03-03T05:44:47.779Z,1018.71
2023-03-03T05:45:47.771Z,1018.71
2023-03-03T05:46:47.803Z,1018.66
2023-03-03T05:47:47.733Z,1018.69
2023-03-03T05:48:47.717Z,1018.72
2023-03-03T05:49:47.715Z,1018.75
2023-03-03T05:50:47.688Z,1018.79
2023-03-03T05:51:47.684Z,1018.78
2023-03-03T05:53:47.650Z,1018.77
2023-03-03T05:54:47.643Z,1018.76
2023-03-03T05:55:47.631Z,1018.77
2023-03-03T05:56:47.603Z,1018.79
2023-03-03T05:57:47.594Z,1018.81
2023-03-03T05:58:47.578Z,1018.82
2023-03-03T06:00:08.587Z,1018.80
2023-03-03T06:00:47.547Z,1018.84
2023-03-03T06:01:47.591Z,1018.78
2023-03-03T06:02:47.644Z,1018.81
2023-03-03T06:03:47.512Z,1018.80
2023-03-03T06:04:47.485Z,1018.80
2023-03-03T06:06:08.491Z,1018.79
2023-03-03T06:06:47.466Z,1018.83
2023-03-03T06:07:47.473Z,1018.79
2023-03-03T06:08:47.426Z,1018.80
2023-03-03T06:09:47.419Z,1018.84
2023-03-03T06:10:47.395Z,1018.86
2023-03-03T06:12:08.397Z,1018.85
2023-03-03T06:12:47.363Z,1018.87
2023-03-03T06:13:47.354Z,1018.85
2023-03-03T06:14:47.335Z,1018.83
2023-03-03T06:15:47.321Z,1018.89
2023-03-03T06:16:47.330Z,1018.91
2023-03-03T06:18:08.311Z,1018.89
2023-03-03T06:18:47.274Z,1018.87
2023-03-03T06:19:47.263Z,1018.88
2023-03-03T06:20:47.244Z,1018.88
2023-03-03T06:21:47.232Z,1018.86
2023-03-03T06:22:47.215Z,1018.84
2023-03-03T06:24:08.208Z,1018.90
2023-03-03T06:24:47.185Z,1018.91
2023-03-03T06:25:47.175Z,1018.91
2023-03-03T06:26:47.161Z,1018.96
2023-03-03T06:27:47.151Z,1018.95
2023-03-03T06:28:47.120Z,1018.89
2023-03-03T06:30:08.146Z,1018.93
2023-03-03T06:30:47.099Z,1018.94
2023-03-03T06:31:47.148Z,1018.93
2023-03-03T06:32:47.164Z,1018.96
2023-03-03T06:33:47.048Z,1018.91
2023-03-03T06:34:47.035Z,1018.91
2023-03-03T06:36:08.019Z,1018.90
2023-03-03T06:36:47.004Z,1018.93
2023-03-03T06:37:47.002Z,1018.95
2023-03-03T06:38:46.972Z,1018.93
2023-03-03T06:39:46.960Z,1018.95
2023-03-03T06:40:46.935Z,1018.95
2023-03-03T06:42:07.931Z,1018.95
2023-03-03T06:42:46.915Z,1018.95
2023-03-03T06:43:46.899Z,1018.98
2023-03-03T06:44:46.884Z,1018.97
2023-03-03T06:45:46.925Z,1019.00
2023-03-03T06:46:46.852Z,1018.96
2023-03-03T06:48:07.839Z,1018.96
2023-03-03T06:48:46.816Z,1018.96
2023-03-03T06:49:46.816Z,1019.01
2023-03-03T06:50:46.788Z,1019.01
2023-03-03T06:51:46.774Z,1019.01
2023-03-03T06:52:46.753Z,1019.03
2023-03-03T06:54:07.746Z,1019.08
2023-03-03T06:54:46.722Z,1019.10
2023-03-03T06:55:46.711Z,1019.15
2023-03-03T06:56:46.698Z,1019.17
2023-03-03T06:57:46.679Z,1019.18
2023-03-03T06:58:46.662Z,1019.21
2023-03-03T07:00:07.661Z,1019.23
2023-03-03T07:00:46.682Z,1019.27
2023-03-03T07:01:46.629Z,1019.23
2023-03-03T07:02:46.602Z,1019.26
2023-03-03T07:03:46.600Z,1019.22
2023-03-03T07:04:46.578Z,1019.26
2023-03-03T07:06:07.570Z,1019.25
2023-03-03T07:06:46.549Z,1019.30
2023-03-03T07:07:46.558Z,1019.32
2023-03-03T07:08:46.517Z,1019.33
2023-03-03T07:09:46.506Z,1019.34
2023-03-03T07:10:46.490Z,1019.33
2023-03-03T07:12:07.487Z,1019.29
2023-03-03T07:12:46.462Z,1019.33
2023-03-03T07:13:46.452Z,1019.30
2023-03-03T07:14:46.432Z,1019.27
2023-03-03T07:15:46.431Z,1019.29
2023-03-03T07:16:46.538Z,1019.30
2023-03-03T07:18:07.398Z,1019.37
2023-03-03T07:18:46.383Z,1019.34
2023-03-03T07:19:46.360Z,1019.41
2023-03-03T07:20:46.347Z,1019.39
2023-03-03T07:21:46.335Z,1019.40
2023-03-03T07:22:46.346Z,1019.37
2023-03-03T07:24:07.309Z,1019.39
2023-03-03T07:24:46.286Z,1019.39
2023-03-03T07:25:46.276Z,1019.39
2023-03-03T07:26:46.264Z,1019.43
2023-03-03T07:27:46.244Z,1019.40
2023-03-03T07:28:46.231Z,1019.39
2023-03-03T07:30:07.221Z,1019.41
2023-03-03T07:30:46.253Z,1019.40
2023-03-03T07:31:46.183Z,1019.41
2023-03-03T07:32:46.208Z,1019.45
2023-03-03T07:33:46.169Z,1019.50
2023-03-03T07:34:46.159Z,1019.48
2023-03-03T07:36:07.130Z,1019.48
2023-03-03T07:36:46.122Z,1019.47
2023-03-03T07:37:46.101Z,1019.52
2023-03-03T07:38:46.090Z,1019.53
2023-03-03T07:39:46.101Z,1019.49
2023-03-03T07:40:46.051Z,1019.50
2023-03-03T07:42:07.042Z,1019.48
2023-03-03T07:42:46.026Z,1019.53
2023-03-03T07:43:46.008Z,1019.54
2023-03-03T07:44:46.006Z,1019.55
2023-03-03T07:45:46.006Z,1019.55
2023-03-03T07:46:45.973Z,1019.56
2023-03-03T07:48:06.949Z,1019.56
2023-03-03T07:48:45.935Z,1019.59
2023-03-03T07:49:45.928Z,1019.60
2023-03-03T07:50:45.908Z,1019.59
2023-03-03T07:51:45.904Z,1019.59
2023-03-03T07:52:45.876Z,1019.60
2023-03-03T07:54:06.860Z,1019.57
2023-03-03T07:54:45.864Z,1019.58
2023-03-03T07:55:45.846Z,1019.58
2023-03-03T07:56:45.816Z,1019.60
2023-03-03T07:57:45.812Z,1019.57
2023-03-03T07:58:45.799Z,1019.56
2023-03-03T08:00:06.772Z,1019.60
2023-03-03T08:00:45.776Z,1019.59
2023-03-03T08:01:45.749Z,1019.51
2023-03-03T08:02:45.729Z,1019.57
2023-03-03T08:03:45.713Z,1019.54
2023-03-03T08:04:45.782Z,1019.58
2023-03-03T08:06:06.684Z,1019.61
2023-03-03T08:06:45.670Z,1019.64
2023-03-03T08:07:45.650Z,1019.64
2023-03-03T08:08:45.712Z,1019.69
2023-03-03T08:09:45.620Z,1019.67
2023-03-03T08:10:45.633Z,1019.66
2023-03-03T08:12:06.603Z,1019.60
2023-03-03T08:12:45.575Z,1019.52
2023-03-03T08:13:45.559Z,1019.55
2023-03-03T08:14:45.548Z,1019.53
2023-03-03T08:15:45.545Z,1019.58
2023-03-03T08:16:45.594Z,1019.61
2023-03-03T08:18:06.494Z,1019.63
2023-03-03T08:18:45.493Z,1019.59
2023-03-03T08:19:45.468Z,1019.58
2023-03-03T08:20:45.490Z,1019.59
2023-03-03T08:21:45.437Z,1019.57
2023-03-03T08:22:45.436Z,1019.57
2023-03-03T08:24:06.400Z,1019.56
2023-03-03T08:24:45.408Z,1019.53
2023-03-03T08:25:45.378Z,1019.59
2023-03-03T08:26:45.359Z,1019.61
2023-03-03T08:27:45.337Z,1019.65
2023-03-03T08:28:45.327Z,1019.64
2023-03-03T08:30:06.313Z,1019.60
2023-03-03T08:30:45.361Z,1019.61
2023-03-03T08:31:45.317Z,1019.59
2023-03-03T08:32:45.279Z,1019.54
2023-03-03T08:33:45.244Z,1019.53
2023-03-03T08:34:45.236Z,1019.56
2023-03-03T08:36:06.239Z,1019.56
2023-03-03T08:36:45.208Z,1019.57
2023-03-03T08:37:45.199Z,1019.60
2023-03-03T08:38:45.189Z,1019.58
2023-03-03T08:39:45.158Z,1019.63
2023-03-03T08:40:45.146Z,1019.61
2023-03-03T08:42:06.158Z,1019.59
2023-03-03T08:42:45.121Z,1019.56
2023-03-03T08:43:45.107Z,1019.52
2023-03-03T08:44:45.086Z,1019.54
2023-03-03T08:45:45.077Z,1019.58
2023-03-03T08:46:45.110Z,1019.60
2023-03-03T08:48:06.288Z,1019.62
2023-03-03T08:48:45.039Z,1019.59
2023-03-03T08:49:45.013Z,1019.63
2023-03-03T08:50:45.010Z,1019.61
2023-03-03T08:51:44.989Z,1019.60
2023-03-03T08:52:44.973Z,1019.61
2023-03-03T08:54:05.966Z,1019.62
2023-03-03T08:54:44.951Z,1019.59
2023-03-03T08:55:44.929Z,1019.61
2023-03-03T08:56:44.919Z,1019.60
2023-03-03T08:57:44.935Z,1019.65
2023-03-03T08:58:59.605Z,1019.63
2023-03-03T09:00:05.877Z,1019.66
2023-03-03T09:00:47.285Z,1019.64
2023-03-03T09:01:44.923Z,1019.62
2023-03-03T09:02:44.834Z,1019.58
2023-03-03T09:03:44.824Z,1019.57
2023-03-03T09:04:44.872Z,1019.52
2023-03-03T09:06:05.793Z,1019.49
2023-03-03T09:06:44.778Z,1019.46
2023-03-03T09:07:46.450Z,1019.48
2023-03-03T09:08:45.187Z,1019.45
2023-03-03T09:09:44.739Z,1019.46
2023-03-03T09:10:44.727Z,1019.44
2023-03-03T09:12:05.709Z,1019.49
2023-03-03T09:12:44.936Z,1019.52
2023-03-03T09:13:44.680Z,1019.52
2023-03-03T09:14:44.665Z,1019.53
2023-03-03T09:15:44.649Z,1019.48
2023-03-03T09:16:44.645Z,1019.51
2023-03-03T09:18:05.623Z,1019.47
2023-03-03T09:18:44.613Z,1019.53
2023-03-03T09:19:44.593Z,1019.49
2023-03-03T09:20:44.960Z,1019.49
2023-03-03T09:21:44.571Z,1019.55
2023-03-03T09:22:44.605Z,1019.54
2023-03-03T09:24:05.559Z,1019.56
2023-03-03T09:24:44.557Z,1019.54
2023-03-03T09:25:44.511Z,1019.53
2023-03-03T09:26:44.495Z,1019.51
2023-03-03T09:27:44.496Z,1019.48
2023-03-03T09:28:44.475Z,1019.47
2023-03-03T09:30:05.471Z,1019.48
2023-03-03T09:30:44.444Z,1019.46
2023-03-03T09:31:44.493Z,1019.48
2023-03-03T09:32:44.443Z,1019.46
2023-03-03T09:33:44.437Z,1019.47
2023-03-03T09:34:44.380Z,1019.49
2023-03-03T09:36:05.443Z,1019.51
2023-03-03T09:36:44.367Z,1019.56
2023-03-03T09:37:44.341Z,1019.57
2023-03-03T09:38:44.339Z,1019.54
2023-03-03T09:39:44.387Z,1019.59
2023-03-03T09:40:44.309Z,1019.56
2023-03-03T09:42:05.289Z,1019.56
2023-03-03T09:42:44.301Z,1019.56
2023-03-03T09:43:44.306Z,1019.56
2023-03-03T09:44:44.241Z,1019.60
2023-03-03T09:45:44.235Z,1019.60
2023-03-03T09:46:44.237Z,1019.57
2023-03-03T09:48:05.240Z,1019.56
2023-03-03T09:48:44.188Z,1019.51
2023-03-03T09:49:44.177Z,1019.53
2023-03-03T09:50:44.160Z,1019.50
2023-03-03T09:51:44.191Z,1019.54
2023-03-03T09:52:44.135Z,1019.54
2023-03-03T09:54:05.121Z,1019.57
2023-03-03T09:54:44.111Z,1019.57
2023-03-03T09:55:44.096Z,1019.59
2023-03-03T09:56:44.074Z,1019.54
2023-03-03T09:57:44.067Z,1019.55
2023-03-03T09:58:44.052Z,1019.55
2023-03-03T10:00:05.251Z,1019.54
2023-03-03T10:00:44.040Z,1019.57
2023-03-03T10:01:44.008Z,1019.57
2023-03-03T10:02:44.010Z,1019.58
2023-03-03T10:03:44.028Z,1019.58
2023-03-03T10:04:43.974Z,1019.60
2023-03-03T10:06:05.057Z,1019.60
2023-03-03T10:06:43.957Z,1019.63
2023-03-03T10:07:43.928Z,1019.60
2023-03-03T10:08:43.916Z,1019.62
2023-03-03T10:09:43.901Z,1019.62
2023-03-03T10:10:43.892Z,1019.62
2023-03-03T10:12:04.881Z,1019.60
2023-03-03T10:12:43.867Z,1019.56
2023-03-03T10:13:43.856Z,1019.55
2023-03-03T10:14:43.832Z,1019.55
2023-03-03T10:15:43.932Z,1019.57
2023-03-03T10:16:43.902Z,1019.52
2023-03-03T10:18:04.800Z,1019.50
2023-03-03T10:18:43.786Z,1019.52
2023-03-03T10:19:43.767Z,1019.48
2023-03-03T10:20:50.195Z,1019.53
2023-03-03T10:21:43.870Z,1019.57
2023-03-03T10:22:43.724Z,1019.53
2023-03-03T10:24:04.717Z,1019.53
2023-03-03T10:24:43.697Z,1019.49
2023-03-03T10:25:43.743Z,1019.48
2023-03-03T10:26:46.413Z,1019.48
2023-03-03T10:27:43.667Z,1019.43
2023-03-03T10:28:43.663Z,1019.45
2023-03-03T10:30:04.664Z,1019.49
2023-03-03T10:30:54.811Z,1019.53
2023-03-03T10:31:43.696Z,1019.55
2023-03-03T10:32:43.799Z,1019.59
2023-03-03T10:33:43.680Z,1019.58
2023-03-03T10:34:43.567Z,1019.53
2023-03-03T10:36:07.404Z,1019.51
2023-03-03T10:36:43.541Z,1019.52
2023-03-03T10:37:43.529Z,1019.55
2023-03-03T10:38:43.511Z,1019.55
2023-03-03T10:39:43.501Z,1019.54
2023-03-03T10:40:43.505Z,1019.54
2023-03-03T10:42:04.482Z,1019.54
2023-03-03T10:42:44.959Z,1019.54
2023-03-03T10:43:43.440Z,1019.62
2023-03-03T10:44:43.432Z,1019.58
2023-03-03T10:45:43.500Z,1019.58
2023-03-03T10:46:43.408Z,1019.62
2023-03-03T10:48:04.405Z,1019.60
2023-03-03T10:48:43.380Z,1019.60
2023-03-03T10:49:43.364Z,1019.62
2023-03-03T10:50:43.358Z,1019.60
2023-03-03T10:51:43.337Z,1019.58
2023-03-03T10:52:43.332Z,1019.61
2023-03-03T10:54:04.327Z,1019.65
2023-03-03T10:54:43.303Z,1019.64
2023-03-03T10:55:43.287Z,1019.68
2023-03-03T10:56:52.902Z,1019.66
2023-03-03T10:57:43.267Z,1019.65
2023-03-03T10:58:43.384Z,1019.63
2023-03-03T11:00:04.245Z,1019.62
2023-03-03T11:00:43.267Z,1019.62
2023-03-03T11:01:43.211Z,1019.65
2023-03-03T11:02:43.279Z,1019.67
2023-03-03T11:03:43.233Z,1019.64
2023-03-03T11:04:43.204Z,1019.67
2023-03-03T11:06:04.294Z,1019.62
2023-03-03T11:06:43.153Z,1019.66
2023-03-03T11:07:43.131Z,1019.59
2023-03-03T11:08:43.124Z,1019.61
2023-03-03T11:09:43.108Z,1019.58
2023-03-03T11:10:43.095Z,1019.59
2023-03-03T11:12:04.088Z,1019.54
2023-03-03T11:12:43.069Z,1019.54
2023-03-03T11:13:43.057Z,1019.51
2023-03-03T11:14:43.043Z,1019.53
2023-03-03T11:15:43.032Z,1019.52
2023-03-03T11:16:43.056Z,1019.51
2023-03-03T11:18:04.021Z,1019.51
2023-03-03T11:18:42.998Z,1019.52
2023-03-03T11:19:42.981Z,1019.50
2023-03-03T11:20:42.983Z,1019.50
2023-03-03T11:21:42.956Z,1019.50
2023-03-03T11:22:42.951Z,1019.49
2023-03-03T11:24:04.032Z,1019.50
2023-03-03T11:24:42.988Z,1019.48
2023-03-03T11:25:42.904Z,1019.50
2023-03-03T11:26:43.120Z,1019.53
2023-03-03T11:27:42.871Z,1019.50
2023-03-03T11:28:42.867Z,1019.53
2023-03-03T11:30:03.850Z,1019.52
2023-03-03T11:30:43.129Z,1019.51
2023-03-03T11:31:42.822Z,1019.48
2023-03-03T11:32:42.803Z,1019.49
2023-03-03T11:33:42.819Z,1019.49
2023-03-03T11:34:42.783Z,1019.48
2023-03-03T11:36:03.839Z,1019.50
2023-03-03T11:36:42.759Z,1019.49
2023-03-03T11:37:42.747Z,1019.49
2023-03-03T11:38:42.729Z,1019.44
2023-03-03T11:39:42.717Z,1019.39
2023-03-03T11:40:42.709Z,1019.42
2023-03-03T11:42:03.700Z,1019.42
2023-03-03T11:42:42.682Z,1019.42
2023-03-03T11:43:42.666Z,1019.45
2023-03-03T11:44:42.661Z,1019.48
2023-03-03T11:45:42.640Z,1019.48
2023-03-03T11:46:42.625Z,1019.47
2023-03-03T11:48:03.632Z,1019.44
2023-03-03T11:48:42.605Z,1019.50
2023-03-03T11:49:42.589Z,1019.44
2023-03-03T11:50:42.579Z,1019.42
2023-03-03T11:51:42.571Z,1019.42
2023-03-03T11:52:42.552Z,1019.39
2023-03-03T11:54:03.543Z,1019.37
2023-03-03T11:54:42.529Z,1019.38
2023-03-03T11:55:42.510Z,1019.35
2023-03-03T11:56:42.500Z,1019.33
2023-03-03T11:57:42.482Z,1019.31
2023-03-03T11:58:42.470Z,1019.25
2023-03-03T12:00:03.475Z,1019.27
2023-03-03T12:00:42.448Z,1019.25
2023-03-03T12:01:42.433Z,1019.29
2023-03-03T12:02:42.488Z,1019.26
2023-03-03T12:03:42.413Z,1019.25
2023-03-03T12:04:42.394Z,1019.19
2023-03-03T12:06:03.454Z,1019.23
2023-03-03T12:06:42.367Z,1019.21